createdAt,value
2023-08-30T03:23:14.156Z,2.12
2023-08-30T03:26:17.546Z,1.83
2023-08-30T03:29:19.827Z,2.15
2023-08-30T03:32:23.112Z,1.65
2023-08-30T03:35:25.311Z,1.48
2023-08-30T03:38:27.750Z,2.30
2023-08-30T03:41:29.964Z,1.50
2023-08-30T03:44:32.776Z,1.45
2023-08-30T03:47:35.080Z,1.62
2023-08-30T03:50:37.565Z,2.12
2023-08-30T03:53:39.720Z,1.33
2023-08-30T03:56:42.175Z,1.75
2023-08-30T03:59:45.656Z,1.52
2023-08-30T04:02:49.428Z,1.77
2023-08-30T04:05:58.458Z,1.58
2023-08-30T04:09:00.694Z,1.40
2023-08-30T04:12:05.809Z,1.33
2023-08-30T04:15:09.038Z,1.40
2023-08-30T04:18:11.847Z,1.73
2023-08-30T04:21:14.472Z,1.35
2023-08-30T04:24:17.074Z,0.93
2023-08-30T04:27:19.215Z,2.40
2023-08-30T04:30:21.915Z,3.25
2023-08-30T04:33:25.105Z,2.97
2023-08-30T04:36:27.552Z,3.17
2023-08-30T04:39:29.798Z,2.80
2023-08-30T04:42:32.840Z,3.10
2023-08-30T04:45:37.937Z,2.95
2023-08-30T04:48:41.050Z,2.47
2023-08-30T04:51:44.944Z,1.92
2023-08-30T04:54:47.520Z,1.87
2023-08-30T04:57:49.819Z,2.08
2023-08-30T05:00:52.603Z,1.62
2023-08-30T05:03:54.877Z,1.87
2023-08-30T05:06:58.736Z,1.65
2023-08-30T05:10:00.949Z,2.22
2023-08-30T05:13:04.873Z,2.12
2023-08-30T05:16:07.632Z,1.37
2023-08-30T05:19:10.257Z,1.83
2023-08-30T05:22:12.537Z,1.87
2023-08-30T05:25:15.234Z,1.75
2023-08-30T05:28:17.468Z,1.10
2023-08-30T05:31:20.209Z,2.87
2023-08-30T05:34:28.276Z,2.17
2023-08-30T05:37:30.996Z,1.27
2023-08-30T05:40:33.353Z,1.70
2023-08-30T05:43:38.854Z,2.60
2023-08-30T05:46:41.631Z,2.55
2023-08-30T05:49:44.090Z,2.08
2023-08-30T05:52:46.365Z,1.77
2023-08-30T05:55:48.848Z,2.33
2023-08-30T05:58:51.076Z,3.28
2023-08-30T06:01:53.709Z,2.17
2023-08-30T06:04:56.406Z,2.08
2023-08-30T06:07:58.835Z,2.78
2023-08-30T06:11:01.407Z,1.70
2023-08-30T06:14:03.580Z,2.67
2023-08-30T06:17:06.169Z,2.17
2023-08-30T06:20:08.763Z,3.30
2023-08-30T06:23:11.340Z,2.42
2023-08-30T06:26:13.715Z,2.80
2023-08-30T06:29:16.194Z,2.33
2023-08-30T06:32:18.814Z,1.83
2023-08-30T06:35:21.581Z,2.75
2023-08-30T06:38:23.736Z,2.78
2023-08-30T06:41:26.622Z,2.78
2023-08-30T06:44:29.837Z,2.72
2023-08-30T06:47:32.637Z,2.75
2023-08-30T06:50:35.508Z,2.10
2023-08-30T06:53:37.957Z,2.30
2023-08-30T06:56:40.104Z,2.80
2023-08-30T06:59:42.607Z,2.20
2023-08-30T07:02:46.926Z,3.12
2023-08-30T07:05:52.371Z,1.97
2023-08-30T07:08:54.648Z,2.33
2023-08-30T07:11:57.487Z,2.62
2023-08-30T07:14:59.891Z,2.30
2023-08-30T07:18:02.652Z,2.67
2023-08-30T07:21:04.948Z,2.12
2023-08-30T07:24:08.287Z,2.67
2023-08-30T07:27:10.513Z,3.03
2023-08-30T07:30:13.440Z,2.12
2023-08-30T07:33:15.636Z,2.53
2023-08-30T07:36:18.296Z,3.00
2023-08-30T07:39:20.786Z,2.67
2023-08-30T07:42:23.447Z,2.35
2023-08-30T07:45:25.772Z,2.15
2023-08-30T07:48:28.266Z,2.78
2023-08-30T07:51:32.497Z,3.17
2023-08-30T07:54:34.962Z,2.90
2023-08-30T07:57:38.999Z,2.80
2023-08-30T08:00:41.479Z,2.90
2023-08-30T08:03:52.360Z,2.60
2023-08-30T08:07:03.602Z,3.03
2023-08-30T08:10:07.015Z,2.50
2023-08-30T08:13:09.676Z,3.05
2023-08-30T08:16:12.628Z,2.67
2023-08-30T08:19:14.986Z,3.28
2023-08-30T08:22:17.526Z,2.35
2023-08-30T08:25:19.861Z,2.33
2023-08-30T08:28:22.314Z,2.78
2023-08-30T08:31:24.867Z,2.20
2023-08-30T08:34:27.617Z,2.28
2023-08-30T08:37:30.068Z,3.03
2023-08-30T08:40:41.683Z,2.97
2023-08-30T08:43:45.838Z,2.70
2023-08-30T08:46:49.202Z,2.28
2023-08-30T08:49:52.288Z,2.97
2023-08-30T08:53:00.234Z,2.60
2023-08-30T08:56:03.248Z,2.65
2023-08-30T08:59:07.701Z,3.00
2023-08-30T09:02:13.065Z,2.75
2023-08-30T09:05:16.308Z,3.25
2023-08-30T09:08:18.610Z,2.42
2023-08-30T09:11:22.757Z,2.45
2023-08-30T09:14:28.036Z,2.58
2023-08-30T09:17:40.868Z,3.08
2023-08-30T09:20:43.261Z,2.60
2023-08-30T09:23:45.722Z,2.53
2023-08-30T09:26:55.642Z,2.90
2023-08-30T09:29:59.620Z,1.83
2023-08-30T09:33:04.069Z,2.37
2023-08-30T09:36:11.309Z,3.00
2023-08-30T09:39:15.628Z,2.50
2023-08-30T09:42:23.203Z,2.20
2023-08-30T09:45:27.826Z,1.90
2023-08-30T09:48:30.477Z,1.87
2023-08-30T09:51:34.418Z,2.30
2023-08-30T09:54:42.758Z,2.05
2023-08-30T09:57:45.958Z,2.03
2023-08-30T10:00:52.271Z,1.70
2023-08-30T10:03:57.527Z,1.85
2023-08-30T10:07:00.465Z,2.37
2023-08-30T10:10:10.011Z,2.65
2023-08-30T10:13:13.816Z,2.20
2023-08-30T10:16:21.540Z,1.80
2023-08-30T10:19:28.258Z,1.73
2023-08-30T10:22:31.585Z,2.00
2023-08-30T10:25:35.011Z,1.85
2023-08-30T10:28:39.611Z,2.00
2023-08-30T10:31:41.836Z,1.92
2023-08-30T10:34:50.345Z,1.90
2023-08-30T10:38:00.864Z,1.40
2023-08-30T10:41:09.768Z,1.62
2023-08-30T10:44:15.667Z,1.80
2023-08-30T10:47:21.573Z,1.70
2023-08-30T10:50:35.000Z,1.30
2023-08-30T10:53:37.483Z,1.90
2023-08-30T10:57:01.840Z,1.17
2023-08-30T11:00:19.919Z,1.58
2023-08-30T11:03:22.205Z,1.67
2023-08-30T11:06:24.775Z,1.23
2023-08-30T11:09:27.751Z,1.08
2023-08-30T11:12:31.605Z,0.90
2023-08-30T11:15:33.820Z,1.15
2023-08-30T11:18:43.991Z,1.30
2023-08-30T11:21:47.143Z,1.70
2023-08-30T11:24:50.443Z,1.30
2023-08-30T11:28:04.699Z,1.08
2023-08-30T11:31:07.177Z,1.23
2023-08-30T11:34:09.378Z,1.40
2023-08-30T11:37:13.221Z,1.00
2023-08-30T11:40:15.665Z,0.98
2023-08-30T11:43:18.588Z,1.10
2023-08-30T11:46:22.393Z,1.40
2023-08-30T11:49:24.996Z,1.15
2023-08-30T11:52:27.699Z,1.50
2023-08-30T11:55:30.450Z,1.00
2023-08-30T11:58:36.560Z,1.02
2023-08-30T12:01:39.151Z,1.20
2023-08-30T12:04:46.773Z,1.10
2023-08-30T12:07:49.170Z,1.37
2023-08-30T12:10:52.671Z,1.10
2023-08-30T12:14:03.084Z,1.30
2023-08-30T12:17:06.789Z,0.73
2023-08-30T12:20:19.174Z,0.93
2023-08-30T12:23:33.523Z,1.37
2023-08-30T12:26:35.817Z,1.40
2023-08-30T12:29:38.337Z,1.30
2023-08-30T12:32:40.521Z,1.40
2023-08-30T12:35:43.051Z,1.05
2023-08-30T12:38:45.183Z,1.30
2023-08-30T12:41:48.403Z,1.25
2023-08-30T12:44:50.833Z,1.10
2023-08-30T12:47:53.339Z,1.30
2023-08-30T12:50:55.615Z,1.27
2023-08-30T12:53:58.106Z,1.50
2023-08-30T12:57:00.257Z,1.27
2023-08-30T13:00:02.937Z,1.40
2023-08-30T13:03:05.336Z,1.60
2023-08-30T13:06:07.971Z,1.60
2023-08-30T13:09:10.680Z,1.15
2023-08-30T13:12:13.140Z,1.50
2023-08-30T13:15:15.467Z,1.42
2023-08-30T13:18:18.713Z,1.52
2023-08-30T13:21:27.476Z,0.75
2023-08-30T13:24:33.903Z,1.65
2023-08-30T13:27:36.164Z,1.55
2023-08-30T13:30:45.357Z,1.23
2023-08-30T13:33:47.688Z,1.40
2023-08-30T13:36:50.235Z,1.35
2023-08-30T13:39:54.661Z,1.30
2023-08-30T13:42:57.793Z,1.10
2023-08-30T13:46:01.047Z,1.10
2023-08-30T13:49:03.669Z,1.58
2023-08-30T13:52:06.253Z,1.25
2023-08-30T13:55:09.149Z,1.30
2023-08-30T13:58:11.279Z,0.82
2023-08-30T14:01:13.731Z,1.45
2023-08-30T14:04:16.156Z,1.10
2023-08-30T14:07:19.091Z,0.88
2023-08-30T14:10:25.606Z,1.00
2023-08-30T14:13:29.325Z,0.82
2023-08-30T14:16:31.824Z,1.02
2023-08-30T14:19:36.112Z,1.20
2023-08-30T14:22:39.195Z,1.40
2023-08-30T14:25:41.357Z,1.30
2023-08-30T14:28:43.847Z,1.25
2023-08-30T14:31:46.103Z,0.90
2023-08-30T14:34:48.708Z,0.95
2023-08-30T14:37:51.866Z,1.35
2023-08-30T14:40:57.674Z,0.98
2023-08-30T14:43:59.932Z,1.40
2023-08-30T14:47:02.504Z,1.23
2023-08-30T14:50:05.313Z,1.00
2023-08-30T14:53:08.085Z,0.20
2023-08-30T14:56:12.198Z,0.60
2023-08-30T14:59:14.674Z,0.80
2023-08-30T15:02:17.196Z,0.80
2023-08-30T15:05:20.156Z,0.90
